Time;durP1;ratioP1;P1;durP2;ratioP2;P2;SDS_P1;SDS_P2;PMS_P1;PMS_P2;Temp;Humidity;BMP_temperature;BMP_pressure;BME280_temperature;BME280_humidity;BME280_pressure;Samples;Min_cycle;Max_cycle;Signal;HPM_P1;HPM_P2
2024/02/17 00:01:22;;;;;;;9.23;5.35;;;;;;;;;;5072326;28;20496;-60
2024/02/17 00:03:48;;;;;;;11.20;5.43;;;;;;;;;;5071980;28;20032;-60
2024/02/17 00:06:14;;;;;;;9.15;5.65;;;;;;;;;;5072725;28;20033;-60
2024/02/17 00:08:40;;;;;;;9.48;5.25;;;;;;;;;;5072793;28;20028;-60
2024/02/17 00:11:06;;;;;;;9.50;5.47;;;;;;;;;;5093272;28;20368;-60
2024/02/17 00:13:32;;;;;;;8.27;5.22;;;;;;;;;;5078881;28;20391;-60
2024/02/17 00:15:58;;;;;;;10.98;5.53;;;;;;;;;;5072420;28;20031;-60
2024/02/17 00:18:28;;;;;;;11.40;5.97;;;;;;;;;;5071265;28;20028;-60
2024/02/17 00:20:57;;;;;;;12.35;5.30;;;;;;;;;;5072867;28;20028;-60
2024/02/17 00:23:23;;;;;;;8.68;5.85;;;;;;;;;;5079656;28;20594;-60
2024/02/17 00:25:49;;;;;;;8.18;5.72;;;;;;;;;;5072661;28;20032;-60
2024/02/17 00:28:15;;;;;;;10.10;5.70;;;;;;;;;;5072756;28;20036;-59
2024/02/17 00:30:41;;;;;;;9.43;4.70;;;;;;;;;;5071564;28;20051;-59
2024/02/17 00:33:07;;;;;;;7.88;4.22;;;;;;;;;;5066247;28;20020;-59
2024/02/17 00:35:33;;;;;;;7.20;3.95;;;;;;;;;;5071278;28;20027;-60
2024/02/17 00:37:59;;;;;;;5.90;3.70;;;;;;;;;;5071338;28;20029;-60
2024/02/17 00:40:25;;;;;;;5.80;3.03;;;;;;;;;;5070024;28;20035;-60
2024/02/17 00:42:51;;;;;;;7.07;3.45;;;;;;;;;;5070873;28;20560;-60
2024/02/17 00:45:17;;;;;;;5.78;2.70;;;;;;;;;;5071616;28;20016;-60
2024/02/17 00:47:43;;;;;;;4.20;2.90;;;;;;;;;;5071070;28;20442;-60
2024/02/17 00:50:09;;;;;;;3.90;2.97;;;;;;;;;;5070420;28;20024;-60
2024/02/17 00:52:35;;;;;;;3.70;2.33;;;;;;;;;;5071140;28;20103;-60
2024/02/17 00:55:01;;;;;;;3.90;2.35;;;;;;;;;;5072406;28;20450;-60
2024/02/17 00:57:27;;;;;;;5.40;2.80;;;;;;;;;;5071868;28;20024;-60
2024/02/17 00:59:53;;;;;;;2.78;1.98;;;;;;;;;;5069055;28;20032;-60
2024/02/17 01:02:20;;;;;;;3.20;1.88;;;;;;;;;;5071574;28;20490;-60
2024/02/17 01:04:46;;;;;;;3.15;1.88;;;;;;;;;;5071350;28;20021;-60
2024/02/17 01:07:12;;;;;;;2.78;1.80;;;;;;;;;;5071925;28;20024;-60
2024/02/17 01:09:39;;;;;;;5.72;2.20;;;;;;;;;;5072030;28;20027;-60
2024/02/17 01:12:05;;;;;;;4.40;1.85;;;;;;;;;;5069174;28;20081;-60
2024/02/17 01:14:31;;;;;;;3.17;2.20;;;;;;;;;;5071421;28;20036;-59
2024/02/17 01:16:57;;;;;;;5.82;2.22;;;;;;;;;;5071517;28;20044;-60
2024/02/17 01:19:22;;;;;;;3.80;2.53;;;;;;;;;;5071141;28;20033;-59
2024/02/17 01:21:49;;;;;;;4.05;2.15;;;;;;;;;;5075500;28;20048;-59
2024/02/17 01:24:15;;;;;;;4.30;2.15;;;;;;;;;;5072898;28;20468;-60
2024/02/17 01:26:41;;;;;;;2.65;1.95;;;;;;;;;;5072242;28;20036;-60
2024/02/17 01:29:07;;;;;;;3.33;2.20;;;;;;;;;;5070453;28;20024;-59
2024/02/17 01:31:33;;;;;;;3.40;2.28;;;;;;;;;;5071649;28;20097;-59
2024/02/17 01:33:59;;;;;;;4.28;2.70;;;;;;;;;;5071143;28;20032;-60
2024/02/17 01:36:25;;;;;;;4.55;2.35;;;;;;;;;;5078074;28;20051;-60
2024/02/17 01:38:50;;;;;;;2.65;2.03;;;;;;;;;;5071654;28;20024;-59
2024/02/17 01:41:16;;;;;;;2.85;1.88;;;;;;;;;;5071386;28;20477;-60
2024/02/17 01:43:42;;;;;;;5.22;2.20;;;;;;;;;;5071428;28;20723;-60
2024/02/17 01:46:09;;;;;;;4.70;2.67;;;;;;;;;;5070588;28;20070;-60
2024/02/17 01:48:35;;;;;;;3.78;2.20;;;;;;;;;;5070998;28;20059;-60
2024/02/17 01:51:03;;;;;;;5.05;2.28;;;;;;;;;;5088745;28;20029;-59
2024/02/17 01:53:29;;;;;;;8.15;2.60;;;;;;;;;;5070913;28;20400;-60
2024/02/17 01:55:57;;;;;;;4.22;2.90;;;;;;;;;;5071638;28;20123;-59
2024/02/17 01:58:23;;;;;;;4.05;2.58;;;;;;;;;;5079591;28;20032;-60
2024/02/17 02:00:49;;;;;;;5.78;2.90;;;;;;;;;;5081145;28;20021;-60
2024/02/17 02:03:15;;;;;;;4.55;3.22;;;;;;;;;;5070789;28;20047;-61
2024/02/17 02:05:41;;;;;;;4.80;2.50;;;;;;;;;;5071665;28;20061;-60
2024/02/17 02:08:07;;;;;;;5.30;3.38;;;;;;;;;;5071448;28;20035;-61
2024/02/17 02:10:33;;;;;;;5.55;3.33;;;;;;;;;;5071217;28;20064;-60
2024/02/17 02:12:59;;;;;;;5.65;3.25;;;;;;;;;;5070661;28;20162;-60
2024/02/17 02:15:25;;;;;;;6.15;2.92;;;;;;;;;;5071337;28;20025;-61
2024/02/17 02:17:51;;;;;;;4.32;3.28;;;;;;;;;;5068710;28;20068;-60
2024/02/17 02:20:19;;;;;;;6.03;3.63;;;;;;;;;;5074745;28;20040;-60
2024/02/17 02:22:45;;;;;;;4.88;3.10;;;;;;;;;;5074028;28;20033;-60
2024/02/17 02:25:24;;;;;;;5.45;3.53;;;;;;;;;;5074658;28;20021;-60
2024/02/17 02:27:50;;;;;;;5.70;3.50;;;;;;;;;;5074977;28;20038;-61
2024/02/17 02:30:16;;;;;;;5.53;3.40;;;;;;;;;;5074397;28;20024;-60
2024/02/17 02:32:42;;;;;;;5.35;3.10;;;;;;;;;;5074228;28;20491;-60
2024/02/17 02:35:08;;;;;;;5.60;3.20;;;;;;;;;;5073623;28;20028;-60
2024/02/17 02:37:34;;;;;;;5.85;3.80;;;;;;;;;;5073797;28;20104;-60
2024/02/17 02:40:00;;;;;;;4.88;2.80;;;;;;;;;;5074311;28;20032;-60
2024/02/17 02:42:28;;;;;;;6.65;3.42;;;;;;;;;;5073351;28;20082;-61
2024/02/17 02:44:54;;;;;;;5.78;3.40;;;;;;;;;;5074610;28;20028;-60
2024/02/17 02:47:20;;;;;;;4.57;3.28;;;;;;;;;;5076689;28;20024;-61
2024/02/17 02:49:46;;;;;;;7.35;3.28;;;;;;;;;;5074150;28;20028;-61
2024/02/17 02:52:12;;;;;;;5.78;3.33;;;;;;;;;;5072999;28;20052;-60
2024/02/17 02:54:38;;;;;;;4.35;3.03;;;;;;;;;;5074329;28;20024;-61
2024/02/17 02:57:04;;;;;;;5.25;3.17;;;;;;;;;;5081120;28;20036;-60
2024/02/17 02:59:30;;;;;;;4.95;3.33;;;;;;;;;;5075112;28;20098;-60
2024/02/17 03:01:57;;;;;;;5.57;3.85;;;;;;;;;;5073144;28;20028;-60
2024/02/17 03:04:23;;;;;;;6.30;3.22;;;;;;;;;;5059537;28;20396;-59
2024/02/17 03:06:49;;;;;;;6.88;3.83;;;;;;;;;;5072800;28;20032;-61
2024/02/17 03:09:15;;;;;;;4.15;3.05;;;;;;;;;;5073045;28;20102;-62
2024/02/17 03:11:42;;;;;;;7.97;3.80;;;;;;;;;;5073470;28;20028;-62
2024/02/17 03:14:08;;;;;;;7.70;3.72;;;;;;;;;;5074160;28;20032;-61
2024/02/17 03:16:34;;;;;;;6.40;4.13;;;;;;;;;;5073067;28;20085;-61
2024/02/17 03:19:00;;;;;;;7.30;4.05;;;;;;;;;;5073831;28;20033;-61
2024/02/17 03:21:26;;;;;;;8.60;5.05;;;;;;;;;;5073435;28;20029;-62
2024/02/17 03:23:52;;;;;;;8.30;4.80;;;;;;;;;;5074022;28;20029;-61
2024/02/17 03:26:18;;;;;;;8.07;4.68;;;;;;;;;;5072876;28;20037;-62
2024/02/17 03:28:44;;;;;;;7.75;4.07;;;;;;;;;;5073121;28;20017;-61
2024/02/17 03:31:11;;;;;;;8.60;5.65;;;;;;;;;;5071272;28;20070;-61
2024/02/17 03:33:37;;;;;;;8.95;5.60;;;;;;;;;;5072445;28;20020;-62
2024/02/17 03:36:05;;;;;;;10.68;5.85;;;;;;;;;;5072197;28;20028;-62
2024/02/17 03:38:31;;;;;;;8.48;5.05;;;;;;;;;;5073478;28;20400;-62
2024/02/17 03:40:57;;;;;;;12.13;6.57;;;;;;;;;;5078434;28;20033;-62
2024/02/17 03:43:23;;;;;;;11.05;6.43;;;;;;;;;;5072935;28;20135;-61
2024/02/17 03:45:49;;;;;;;11.07;5.82;;;;;;;;;;5070594;28;20134;-62
2024/02/17 03:48:15;;;;;;;10.80;6.13;;;;;;;;;;5072973;28;20103;-61
2024/02/17 03:50:41;;;;;;;13.95;6.63;;;;;;;;;;5075835;28;20401;-62
2024/02/17 03:53:07;;;;;;;13.05;6.32;;;;;;;;;;5093685;28;20031;-62
2024/02/17 03:55:33;;;;;;;11.88;6.00;;;;;;;;;;5074309;28;20028;-62
2024/02/17 03:57:59;;;;;;;10.20;6.15;;;;;;;;;;5072075;28;20039;-62
2024/02/17 04:00:25;;;;;;;11.20;6.20;;;;;;;;;;5072758;28;20020;-62
2024/02/17 04:02:51;;;;;;;12.38;6.13;;;;;;;;;;5074742;28;20423;-62
2024/02/17 04:05:17;;;;;;;8.90;5.60;;;;;;;;;;5079549;28;20016;-61
2024/02/17 04:07:43;;;;;;;12.43;6.18;;;;;;;;;;5072578;28;20508;-60
2024/02/17 04:10:09;;;;;;;11.57;6.63;;;;;;;;;;5081790;28;20095;-61
2024/02/17 04:12:37;;;;;;;11.20;6.28;;;;;;;;;;5069263;28;20048;-61
2024/02/17 04:15:04;;;;;;;13.82;6.60;;;;;;;;;;5071275;28;20060;-62
2024/02/17 04:17:30;;;;;;;9.40;5.65;;;;;;;;;;5071665;28;20053;-58
2024/02/17 04:19:56;;;;;;;9.40;5.90;;;;;;;;;;5071250;28;20381;-57
2024/02/17 04:22:24;;;;;;;11.05;6.20;;;;;;;;;;5071366;28;21783;-58
2024/02/17 04:24:50;;;;;;;16.30;6.57;;;;;;;;;;5052974;28;20025;-58
2024/02/17 04:27:16;;;;;;;9.95;5.75;;;;;;;;;;5065512;28;20021;-58
2024/02/17 04:29:42;;;;;;;9.93;6.32;;;;;;;;;;5071021;28;20028;-57
2024/02/17 04:32:08;;;;;;;13.88;6.78;;;;;;;;;;5070796;28;20032;-59
2024/02/17 04:34:35;;;;;;;12.25;6.13;;;;;;;;;;5071381;28;20632;-58
2024/02/17 04:37:01;;;;;;;10.18;5.70;;;;;;;;;;5072057;28;20020;-58
2024/02/17 04:39:27;;;;;;;13.55;6.35;;;;;;;;;;5072199;28;20028;-57
2024/02/17 04:41:54;;;;;;;10.45;5.85;;;;;;;;;;5070786;28;20035;-58
2024/02/17 04:44:20;;;;;;;11.20;6.05;;;;;;;;;;5070511;28;20055;-59
2024/02/17 04:46:47;;;;;;;13.20;5.57;;;;;;;;;;5070412;28;20024;-58
2024/02/17 04:49:13;;;;;;;10.65;5.30;;;;;;;;;;5071906;28;20029;-58
2024/02/17 04:51:39;;;;;;;11.05;5.45;;;;;;;;;;5071773;28;20036;-57
2024/02/17 04:54:06;;;;;;;12.18;6.30;;;;;;;;;;5071640;28;20036;-58
2024/02/17 04:56:32;;;;;;;10.32;5.10;;;;;;;;;;5071210;28;20028;-57
2024/02/17 04:58:58;;;;;;;11.00;5.88;;;;;;;;;;5081340;28;20035;-59
2024/02/17 05:01:24;;;;;;;11.50;5.72;;;;;;;;;;5070018;28;20090;-58
2024/02/17 05:03:50;;;;;;;12.93;6.40;;;;;;;;;;5063961;28;20021;-58
2024/02/17 05:06:17;;;;;;;10.48;5.78;;;;;;;;;;5071621;28;20017;-58
2024/02/17 05:08:45;;;;;;;10.93;5.90;;;;;;;;;;5071919;28;20032;-58
2024/02/17 05:11:12;;;;;;;13.98;6.05;;;;;;;;;;5075304;28;20112;-57
2024/02/17 05:13:38;;;;;;;11.90;5.82;;;;;;;;;;5070303;28;20427;-58
2024/02/17 05:16:04;;;;;;;12.75;6.07;;;;;;;;;;5069949;28;20047;-58
2024/02/17 05:18:30;;;;;;;10.20;5.57;;;;;;;;;;5073681;28;20020;-57
2024/02/17 05:20:56;;;;;;;10.73;6.10;;;;;;;;;;5070849;28;20031;-58
2024/02/17 05:23:22;;;;;;;14.23;5.88;;;;;;;;;;5070908;28;20041;-57
2024/02/17 05:25:48;;;;;;;8.93;5.32;;;;;;;;;;5071490;28;20137;-58
2024/02/17 05:28:15;;;;;;;9.35;5.55;;;;;;;;;;5071771;28;20016;-58
2024/02/17 05:30:41;;;;;;;12.13;6.50;;;;;;;;;;5069511;28;20029;-57
2024/02/17 05:33:07;;;;;;;10.60;5.22;;;;;;;;;;5068645;28;20028;-58
2024/02/17 05:35:33;;;;;;;11.27;6.25;;;;;;;;;;5071523;28;20044;-58
2024/02/17 05:37:59;;;;;;;9.93;5.60;;;;;;;;;;5071079;28;20023;-58
2024/02/17 05:40:25;;;;;;;9.90;5.07;;;;;;;;;;5071251;28;20395;-57
2024/02/17 05:42:51;;;;;;;11.50;5.18;;;;;;;;;;5070450;28;20028;-59
2024/02/17 05:45:17;;;;;;;13.75;5.85;;;;;;;;;;5070193;28;20024;-57
2024/02/17 05:47:43;;;;;;;16.63;5.78;;;;;;;;;;5071282;28;20035;-57
2024/02/17 05:50:10;;;;;;;9.05;5.10;;;;;;;;;;5068993;28;20023;-57
2024/02/17 05:52:38;;;;;;;14.30;5.03;;;;;;;;;;5071124;28;20028;-57
2024/02/17 05:55:05;;;;;;;9.10;5.03;;;;;;;;;;5074421;28;20121;-58
2024/02/17 05:57:31;;;;;;;11.88;4.90;;;;;;;;;;5075027;28;20567;-58
2024/02/17 05:59:57;;;;;;;12.13;5.53;;;;;;;;;;5074433;28;20040;-58
2024/02/17 06:02:23;;;;;;;14.65;5.55;;;;;;;;;;5074842;28;20552;-58
2024/02/17 06:04:49;;;;;;;10.00;4.90;;;;;;;;;;5072508;28;20025;-59
2024/02/17 06:07:16;;;;;;;8.63;4.63;;;;;;;;;;5071132;28;20079;-58
2024/02/17 06:09:42;;;;;;;11.00;5.38;;;;;;;;;;5074922;28;20048;-57
2024/02/17 06:12:08;;;;;;;9.02;4.93;;;;;;;;;;5074104;28;20031;-58
2024/02/17 06:14:34;;;;;;;13.25;5.35;;;;;;;;;;5073439;28;20107;-59
2024/02/17 06:17:06;;;;;;;10.95;5.32;;;;;;;;;;5076010;28;20029;-58
2024/02/17 06:22:17;;;;;;;10.15;5.32;;;;;;;;;;5072506;28;20035;-58
2024/02/17 06:24:43;;;;;;;9.80;5.25;;;;;;;;;;5072534;28;20479;-59
2024/02/17 06:27:11;;;;;;;11.35;5.80;;;;;;;;;;5073612;28;20034;-58
2024/02/17 06:29:37;;;;;;;10.73;5.28;;;;;;;;;;5076270;28;20029;-58
2024/02/17 06:32:03;;;;;;;10.10;5.78;;;;;;;;;;5073058;28;20028;-58
2024/02/17 06:34:29;;;;;;;12.38;4.90;;;;;;;;;;5073147;28;20038;-60
2024/02/17 06:36:55;;;;;;;10.25;5.18;;;;;;;;;;5067976;28;20036;-61
2024/02/17 06:39:21;;;;;;;12.10;5.80;;;;;;;;;;5071860;28;20512;-62
2024/02/17 06:41:47;;;;;;;11.32;5.25;;;;;;;;;;5073832;28;20043;-62
2024/02/17 06:44:13;;;;;;;8.43;5.15;;;;;;;;;;5073227;28;20028;-62
2024/02/17 06:46:44;;;;;;;9.10;4.97;;;;;;;;;;5072405;28;20024;-62
2024/02/17 06:49:09;;;;;;;8.75;4.85;;;;;;;;;;5073058;28;20327;-61
2024/02/17 06:51:36;;;;;;;8.48;4.70;;;;;;;;;;5072715;28;20025;-62
2024/02/17 06:54:02;;;;;;;7.63;4.70;;;;;;;;;;5073091;28;20028;-62
2024/02/17 06:56:29;;;;;;;11.25;5.10;;;;;;;;;;5072178;28;20154;-61
2024/02/17 06:58:55;;;;;;;12.57;4.65;;;;;;;;;;5072873;28;20073;-61
2024/02/17 07:01:21;;;;;;;11.68;5.05;;;;;;;;;;5073279;28;20052;-62
2024/02/17 07:03:47;;;;;;;7.72;4.20;;;;;;;;;;5072444;28;20029;-61
2024/02/17 07:06:16;;;;;;;7.88;4.63;;;;;;;;;;5074593;28;20021;-62
2024/02/17 07:08:46;;;;;;;9.98;4.30;;;;;;;;;;5069151;28;20048;-61
2024/02/17 07:11:12;;;;;;;6.43;3.83;;;;;;;;;;5067738;28;20086;-62
2024/02/17 07:13:38;;;;;;;9.68;4.47;;;;;;;;;;5066115;28;20042;-61
2024/02/17 07:16:04;;;;;;;8.13;3.92;;;;;;;;;;5071297;28;20373;-61
2024/02/17 07:18:30;;;;;;;16.85;4.82;;;;;;;;;;5072618;28;20040;-61
2024/02/17 07:20:57;;;;;;;9.48;4.40;;;;;;;;;;5069043;28;20063;-61
2024/02/17 07:23:23;;;;;;;6.63;4.07;;;;;;;;;;5072329;28;20047;-63
2024/02/17 07:25:51;;;;;;;6.38;3.58;;;;;;;;;;5072068;28;20039;-62
2024/02/17 07:28:17;;;;;;;10.63;3.55;;;;;;;;;;5073033;28;20024;-61
2024/02/17 07:30:43;;;;;;;8.82;3.65;;;;;;;;;;5068936;28;20060;-62
2024/02/17 07:33:10;;;;;;;8.07;4.00;;;;;;;;;;5071154;28;20051;-61
2024/02/17 07:35:40;;;;;;;7.80;3.28;;;;;;;;;;5070508;28;20032;-61
2024/02/17 07:38:06;;;;;;;4.22;2.78;;;;;;;;;;5070163;28;20029;-62
2024/02/17 07:40:32;;;;;;;5.95;3.00;;;;;;;;;;5071086;28;20037;-62
2024/02/17 07:42:58;;;;;;;4.40;3.05;;;;;;;;;;5070212;28;20033;-61
2024/02/17 07:45:24;;;;;;;6.80;3.53;;;;;;;;;;5070828;28;20037;-61
2024/02/17 07:47:50;;;;;;;7.13;4.05;;;;;;;;;;5071579;28;20024;-59
2024/02/17 07:50:16;;;;;;;4.68;3.08;;;;;;;;;;5068720;28;20498;-60
2024/02/17 07:52:42;;;;;;;10.65;3.53;;;;;;;;;;5070315;28;20024;-60
2024/02/17 07:55:08;;;;;;;7.03;2.90;;;;;;;;;;5071106;28;20490;-60
2024/02/17 07:57:35;;;;;;;6.28;2.97;;;;;;;;;;5071401;28;20440;-60
2024/02/17 08:00:02;;;;;;;4.45;2.53;;;;;;;;;;5070156;28;20488;-59
2024/02/17 08:02:28;;;;;;;4.00;2.63;;;;;;;;;;5065827;28;20378;-60
2024/02/17 08:04:56;;;;;;;2.72;2.08;;;;;;;;;;5070729;28;20031;-60
2024/02/17 08:07:21;;;;;;;6.85;3.20;;;;;;;;;;5068621;28;20024;-60
2024/02/17 08:09:48;;;;;;;3.97;1.92;;;;;;;;;;5071007;28;20048;-59
2024/02/17 08:12:14;;;;;;;4.03;2.00;;;;;;;;;;5068757;28;20041;-59
2024/02/17 08:14:43;;;;;;;2.95;1.80;;;;;;;;;;5071822;28;20037;-59
2024/02/17 08:17:09;;;;;;;5.68;2.00;;;;;;;;;;5067736;28;20071;-60
2024/02/17 08:19:35;;;;;;;3.05;1.60;;;;;;;;;;5069880;28;20024;-60
2024/02/17 08:22:01;;;;;;;2.72;1.45;;;;;;;;;;5073235;28;20106;-60
2024/02/17 08:24:27;;;;;;;7.53;1.88;;;;;;;;;;5067109;28;20059;-60
2024/02/17 08:26:53;;;;;;;8.73;3.72;;;;;;;;;;5069382;28;20021;-60
2024/02/17 08:29:20;;;;;;;5.47;1.52;;;;;;;;;;5071103;28;20024;-59
2024/02/17 08:31:52;;;;;;;4.18;1.35;;;;;;;;;;5070255;28;20096;-60
2024/02/17 08:34:18;;;;;;;2.45;1.25;;;;;;;;;;5068724;28;20028;-60
2024/02/17 08:36:44;;;;;;;3.70;0.85;;;;;;;;;;5070085;28;20036;-60
2024/02/17 08:39:12;;;;;;;3.40;1.00;;;;;;;;;;5076723;28;20388;-60
2024/02/17 08:41:38;;;;;;;4.30;1.52;;;;;;;;;;5066500;28;20028;-60
2024/02/17 08:44:04;;;;;;;21.35;9.93;;;;;;;;;;5069663;28;20024;-60
2024/02/17 08:46:30;;;;;;;6.82;2.58;;;;;;;;;;5068642;28;20028;-60
2024/02/17 08:48:56;;;;;;;4.55;1.40;;;;;;;;;;5069223;28;20750;-60
2024/02/17 08:51:22;;;;;;;1.77;1.10;;;;;;;;;;5067799;28;20036;-59
2024/02/17 08:53:48;;;;;;;3.50;1.30;;;;;;;;;;5064409;28;20028;-60
2024/02/17 08:56:15;;;;;;;1.95;1.02;;;;;;;;;;5070011;28;20052;-60
2024/02/17 08:58:41;;;;;;;55.40;33.92;;;;;;;;;;5068140;28;20515;-61
2024/02/17 09:01:06;;;;;;;6.25;3.13;;;;;;;;;;5069236;28;20028;-61
2024/02/17 09:03:33;;;;;;;3.50;1.10;;;;;;;;;;5068851;28;20035;-61
2024/02/17 09:05:58;;;;;;;1.38;0.70;;;;;;;;;;5068991;28;20025;-61
2024/02/17 09:08:24;;;;;;;2.72;1.38;;;;;;;;;;5068207;28;20074;-60
2024/02/17 09:10:50;;;;;;;1.92;0.88;;;;;;;;;;5068288;28;20021;-61
2024/02/17 09:13:16;;;;;;;2.03;1.02;;;;;;;;;;5068034;28;20033;-59
2024/02/17 09:15:44;;;;;;;1.60;0.88;;;;;;;;;;5070207;28;20032;-61
2024/02/17 09:18:10;;;;;;;2.65;1.30;;;;;;;;;;5068942;28;20120;-60
2024/02/17 09:20:36;;;;;;;1.00;0.60;;;;;;;;;;5070173;28;20033;-60
2024/02/17 09:23:04;;;;;;;1.67;0.60;;;;;;;;;;5071027;28;20037;-60
2024/02/17 09:25:30;;;;;;;4.97;1.33;;;;;;;;;;5070022;28;20033;-61
2024/02/17 09:27:56;;;;;;;0.60;0.40;;;;;;;;;;5067497;28;20035;-61
2024/02/17 09:30:22;;;;;;;1.85;0.50;;;;;;;;;;5069471;28;20403;-60
2024/02/17 09:32:48;;;;;;;0.40;0.38;;;;;;;;;;5070493;28;20020;-61
2024/02/17 09:35:14;;;;;;;2.65;0.50;;;;;;;;;;5070027;28;20025;-60
2024/02/17 09:37:44;;;;;;;1.05;0.50;;;;;;;;;;5070852;28;20082;-60
2024/02/17 09:40:10;;;;;;;0.50;0.30;;;;;;;;;;5073273;28;20449;-61
2024/02/17 09:42:36;;;;;;;1.85;0.38;;;;;;;;;;5074628;28;20051;-60
2024/02/17 09:45:03;;;;;;;1.67;0.40;;;;;;;;;;5074287;28;20392;-61
2024/02/17 09:47:31;;;;;;;0.40;0.32;;;;;;;;;;5068573;28;20155;-60
2024/02/17 09:49:57;;;;;;;1.10;0.50;;;;;;;;;;5071968;28;20032;-60
2024/02/17 09:52:24;;;;;;;1.45;0.60;;;;;;;;;;5076449;28;20024;-61
2024/02/17 09:54:50;;;;;;;1.17;0.50;;;;;;;;;;5078219;28;20031;-61
2024/02/17 09:57:17;;;;;;;1.75;0.40;;;;;;;;;;5074450;28;20039;-60
2024/02/17 09:59:43;;;;;;;1.33;0.30;;;;;;;;;;5069332;28;20088;-60
2024/02/17 10:02:10;;;;;;;0.93;0.40;;;;;;;;;;5072323;28;20029;-60
2024/02/17 10:04:51;;;;;;;0.52;0.35;;;;;;;;;;5079240;28;20039;-61
2024/02/17 10:07:17;;;;;;;1.13;0.32;;;;;;;;;;5073012;28;20028;-59
2024/02/17 10:09:44;;;;;;;1.95;0.40;;;;;;;;;;5071290;28;20040;-60
2024/02/17 10:12:11;;;;;;;1.35;0.60;;;;;;;;;;5073199;28;20035;-60
2024/02/17 10:14:37;;;;;;;0.17;0.13;;;;;;;;;;5077734;28;20152;-59
2024/02/17 10:17:04;;;;;;;0.47;0.30;;;;;;;;;;5071965;28;20386;-59
2024/02/17 10:19:30;;;;;;;0.50;0.32;;;;;;;;;;5072505;28;20032;-60
2024/02/17 10:21:56;;;;;;;2.63;0.30;;;;;;;;;;5074099;28;20384;-59
2024/02/17 10:24:22;;;;;;;0.70;0.43;;;;;;;;;;5070549;28;20432;-59
2024/02/17 10:26:55;;;;;;;0.75;0.40;;;;;;;;;;5075773;28;20039;-59
2024/02/17 10:29:21;;;;;;;0.93;0.40;;;;;;;;;;5071606;28;20024;-59
2024/02/17 10:31:48;;;;;;;1.08;0.30;;;;;;;;;;5072657;28;20569;-59
2024/02/17 10:34:14;;;;;;;1.15;0.20;;;;;;;;;;5073273;28;20021;-60
2024/02/17 10:36:41;;;;;;;0.50;0.20;;;;;;;;;;5074222;28;20024;-60
2024/02/17 10:39:07;;;;;;;1.35;0.20;;;;;;;;;;5072638;28;20111;-59
2024/02/17 10:41:36;;;;;;;0.80;0.20;;;;;;;;;;5071301;28;20036;-60
2024/02/17 10:44:02;;;;;;;0.55;0.20;;;;;;;;;;5072699;28;20043;-60
2024/02/17 10:46:29;;;;;;;0.13;0.10;;;;;;;;;;5069590;28;20058;-60
2024/02/17 10:48:58;;;;;;;0.57;0.15;;;;;;;;;;5075721;28;20020;-60
2024/02/17 10:51:24;;;;;;;1.10;0.40;;;;;;;;;;5067206;28;20039;-60
2024/02/17 10:53:53;;;;;;;0.50;0.32;;;;;;;;;;5073332;28;20027;-60
2024/02/17 10:56:21;;;;;;;1.95;0.10;;;;;;;;;;5071578;28;20025;-60
2024/02/17 10:58:48;;;;;;;1.00;0.10;;;;;;;;;;5068956;28;20111;-60
2024/02/17 11:01:14;;;;;;;0.85;0.38;;;;;;;;;;5069128;28;20539;-60
2024/02/17 11:03:42;;;;;;;0.20;0.10;;;;;;;;;;5068138;28;20021;-59
2024/02/17 11:06:09;;;;;;;1.00;0.30;;;;;;;;;;5071391;28;20054;-60
2024/02/17 11:08:36;;;;;;;1.00;0.20;;;;;;;;;;5075469;28;20541;-60
2024/02/17 11:11:20;;;;;;;2.63;0.32;;;;;;;;;;5072541;28;20027;-60
2024/02/17 11:13:47;;;;;;;0.22;0.20;;;;;;;;;;5074410;28;20071;-60
2024/02/17 11:16:13;;;;;;;0.22;0.20;;;;;;;;;;5073153;28;20044;-61
2024/02/17 11:18:39;;;;;;;1.67;0.52;;;;;;;;;;5071929;28;20037;-61
2024/02/17 11:21:05;;;;;;;0.65;0.28;;;;;;;;;;5068635;28;20040;-61
2024/02/17 11:23:37;;;;;;;0.75;0.20;;;;;;;;;;5068234;28;20117;-61
2024/02/17 11:26:07;;;;;;;0.52;0.20;;;;;;;;;;5071473;28;20039;-61
2024/02/17 11:28:33;;;;;;;2.00;0.20;;;;;;;;;;5072819;28;20112;-60
2024/02/17 11:30:59;;;;;;;2.55;0.20;;;;;;;;;;5065443;28;20021;-60
2024/02/17 11:33:29;;;;;;;1.95;0.40;;;;;;;;;;5072913;28;20052;-61
2024/02/17 11:35:56;;;;;;;0.65;0.20;;;;;;;;;;5072430;28;20082;-61
2024/02/17 11:38:26;;;;;;;0.32;0.30;;;;;;;;;;5071835;28;20111;-60
2024/02/17 11:40:56;;;;;;;1.20;0.22;;;;;;;;;;5075419;28;20028;-60
2024/02/17 11:43:22;;;;;;;3.10;0.30;;;;;;;;;;5065060;28;20081;-61
2024/02/17 11:45:48;;;;;;;0.47;0.20;;;;;;;;;;5065067;28;20024;-60
2024/02/17 11:48:15;;;;;;;0.57;0.20;;;;;;;;;;5072030;28;20467;-60
2024/02/17 11:50:41;;;;;;;1.08;0.32;;;;;;;;;;5070432;28;20082;-59
2024/02/17 11:53:07;;;;;;;0.65;0.40;;;;;;;;;;5069245;28;20036;-61
2024/02/17 11:55:32;;;;;;;1.75;0.68;;;;;;;;;;5071450;28;20055;-61
2024/02/17 11:57:58;;;;;;;2.40;0.30;;;;;;;;;;5072013;28;20104;-60
2024/02/17 12:00:25;;;;;;;4.40;0.50;;;;;;;;;;5071263;28;20041;-61
2024/02/17 12:02:51;;;;;;;0.93;0.70;;;;;;;;;;5068895;28;20036;-61
2024/02/17 12:05:17;;;;;;;5.63;0.77;;;;;;;;;;5062242;28;20031;-60
2024/02/17 12:07:43;;;;;;;5.47;0.70;;;;;;;;;;5066336;28;20025;-61
2024/02/17 12:10:09;;;;;;;3.40;1.33;;;;;;;;;;5071453;28;20023;-60
2024/02/17 12:12:42;;;;;;;1.10;0.45;;;;;;;;;;5071431;28;20041;-60
2024/02/17 12:15:14;;;;;;;6.10;0.88;;;;;;;;;;5071601;28;20032;-60
2024/02/17 12:17:44;;;;;;;2.35;0.60;;;;;;;;;;5071266;28;20056;-60
2024/02/17 12:20:19;;;;;;;4.65;0.65;;;;;;;;;;5070421;28;20028;-60
2024/02/17 12:22:46;;;;;;;1.55;0.65;;;;;;;;;;5065725;28;20033;-60
2024/02/17 12:25:13;;;;;;;3.15;0.70;;;;;;;;;;5063714;28;20067;-60
2024/02/17 12:27:41;;;;;;;4.97;0.88;;;;;;;;;;5077822;28;20021;-60
2024/02/17 12:30:08;;;;;;;1.88;0.70;;;;;;;;;;5070501;28;20034;-60
2024/02/17 12:32:33;;;;;;;4.80;0.80;;;;;;;;;;5070826;28;20107;-60
2024/02/17 12:35:30;;;;;;;1.88;0.70;;;;;;;;;;5070827;28;20036;-60
2024/02/17 12:37:56;;;;;;;3.30;0.65;;;;;;;;;;5063349;28;20099;-60
2024/02/17 12:40:22;;;;;;;1.23;0.65;;;;;;;;;;5071203;28;20120;-61
2024/02/17 12:42:52;;;;;;;4.00;0.93;;;;;;;;;;5067967;28;20031;-60
2024/02/17 12:45:30;;;;;;;4.10;0.88;;;;;;;;;;5069736;28;20028;-60
2024/02/17 12:47:57;;;;;;;7.68;1.20;;;;;;;;;;5068623;28;20750;-60
2024/02/17 12:50:23;;;;;;;2.00;0.60;;;;;;;;;;5066532;28;20036;-59
2024/02/17 12:52:49;;;;;;;4.15;0.73;;;;;;;;;;5068575;28;20417;-60
2024/02/17 12:55:15;;;;;;;2.63;0.77;;;;;;;;;;5069226;28;20115;-60
2024/02/17 12:57:42;;;;;;;2.42;0.63;;;;;;;;;;5066376;28;20043;-60
2024/02/17 13:00:08;;;;;;;3.97;0.95;;;;;;;;;;5065609;28;20021;-60
2024/02/17 13:02:36;;;;;;;4.75;0.90;;;;;;;;;;5067217;28;20098;-60
2024/02/17 13:05:02;;;;;;;3.38;0.98;;;;;;;;;;5068673;28;20032;-60
2024/02/17 13:07:32;;;;;;;7.25;0.90;;;;;;;;;;5068772;28;20028;-60
2024/02/17 13:09:58;;;;;;;4.90;0.98;;;;;;;;;;5068475;28;20028;-60
2024/02/17 13:12:24;;;;;;;4.50;0.90;;;;;;;;;;5069381;28;20347;-60
2024/02/17 13:14:50;;;;;;;2.53;0.80;;;;;;;;;;5064291;28;20040;-60
2024/02/17 13:17:16;;;;;;;5.82;1.27;;;;;;;;;;5067735;28;20495;-60
2024/02/17 13:19:42;;;;;;;3.65;0.80;;;;;;;;;;5068544;28;20024;-60
2024/02/17 13:22:08;;;;;;;3.45;0.85;;;;;;;;;;5069432;28;20074;-60
2024/02/17 13:24:33;;;;;;;3.67;0.80;;;;;;;;;;5063879;28;20025;-60
2024/02/17 13:26:59;;;;;;;4.00;0.80;;;;;;;;;;5069011;28;20024;-60
2024/02/17 13:29:26;;;;;;;3.95;1.13;;;;;;;;;;5069753;28;20021;-60
2024/02/17 13:31:57;;;;;;;2.95;0.95;;;;;;;;;;5069561;28;20024;-61
2024/02/17 13:34:23;;;;;;;5.07;1.63;;;;;;;;;;5066980;28;20021;-61
2024/02/17 13:36:50;;;;;;;4.13;0.90;;;;;;;;;;5069594;28;20601;-58
2024/02/17 13:39:16;;;;;;;6.35;1.20;;;;;;;;;;5069533;28;20028;-58
2024/02/17 13:41:42;;;;;;;1.70;0.88;;;;;;;;;;5067813;28;20476;-59
2024/02/17 13:44:08;;;;;;;3.28;1.15;;;;;;;;;;5068653;28;20021;-59
2024/02/17 13:46:34;;;;;;;6.90;1.30;;;;;;;;;;5068620;28;20097;-58
2024/02/17 13:48:59;;;;;;;8.88;1.45;;;;;;;;;;5067670;28;20111;-59
2024/02/17 13:51:26;;;;;;;6.88;1.35;;;;;;;;;;5069299;28;20033;-58
2024/02/17 13:53:52;;;;;;;4.80;1.15;;;;;;;;;;5068623;28;20043;-58
2024/02/17 13:56:18;;;;;;;3.25;1.38;;;;;;;;;;5070187;28;20535;-58
2024/02/17 13:58:45;;;;;;;7.78;2.03;;;;;;;;;;5069434;28;20024;-58
2024/02/17 14:01:11;;;;;;;6.80;1.20;;;;;;;;;;5070369;28;20092;-58
2024/02/17 14:03:37;;;;;;;6.30;1.30;;;;;;;;;;5069445;28;20027;-59
2024/02/17 14:06:04;;;;;;;7.07;0.98;;;;;;;;;;5070012;28;20421;-58
2024/02/17 14:08:34;;;;;;;6.30;1.42;;;;;;;;;;5070256;28;20029;-58
2024/02/17 14:11:00;;;;;;;7.22;1.27;;;;;;;;;;5094424;28;20050;-58
2024/02/17 14:13:26;;;;;;;5.78;1.58;;;;;;;;;;5093083;28;20064;-58
2024/02/17 14:15:52;;;;;;;7.85;1.45;;;;;;;;;;5094160;28;20407;-59
2024/02/17 14:18:22;;;;;;;5.93;1.02;;;;;;;;;;5103858;28;20373;-58
2024/02/17 14:20:48;;;;;;;6.05;1.30;;;;;;;;;;5094431;28;20486;-57
2024/02/17 14:23:14;;;;;;;6.43;1.50;;;;;;;;;;5094296;28;20101;-58
2024/02/17 14:25:41;;;;;;;4.03;0.90;;;;;;;;;;5102934;28;20035;-59
2024/02/17 14:28:09;;;;;;;17.20;1.83;;;;;;;;;;5100140;28;20023;-57
2024/02/17 14:30:35;;;;;;;4.43;1.02;;;;;;;;;;5108417;28;20071;-58
2024/02/17 14:33:03;;;;;;;7.68;1.50;;;;;;;;;;5103118;28;20024;-57
2024/02/17 14:35:29;;;;;;;10.70;1.33;;;;;;;;;;5094366;28;20038;-58
2024/02/17 14:37:55;;;;;;;7.60;1.17;;;;;;;;;;5096924;28;20028;-57
2024/02/17 14:40:21;;;;;;;6.72;1.80;;;;;;;;;;5102297;28;20020;-58